sensor_id;sensor_type;location;lat;lon;timestamp;P1;durP1;ratioP1;P2;durP2;ratioP2
61393;SDS011;48555;50.952;-0.120;2024-01-25T00:00:30;12.63;;;3.53;;
61393;SDS011;48555;50.952;-0.120;2024-01-25T00:02:55;19.80;;;4.07;;
61393;SDS011;48555;50.952;-0.120;2024-01-25T00:05:21;14.90;;;3.55;;
61393;SDS011;48555;50.952;-0.120;2024-01-25T00:07:46;19.90;;;3.70;;
61393;SDS011;48555;50.952;-0.120;2024-01-25T00:10:12;19.95;;;4.03;;
61393;SDS011;48555;50.952;-0.120;2024-01-25T00:12:38;17.13;;;3.60;;
61393;SDS011;48555;50.952;-0.120;2024-01-25T00:15:03;17.83;;;3.53;;
61393;SDS011;48555;50.952;-0.120;2024-01-25T00:17:29;16.30;;;3.38;;
61393;SDS011;48555;50.952;-0.120;2024-01-25T00:19:54;14.85;;;3.00;;
61393;SDS011;48555;50.952;-0.120;2024-01-25T00:22:20;13.80;;;3.47;;
61393;SDS011;48555;50.952;-0.120;2024-01-25T00:24:45;16.90;;;2.88;;
61393;SDS011;48555;50.952;-0.120;2024-01-25T00:27:10;14.35;;;3.25;;
61393;SDS011;48555;50.952;-0.120;2024-01-25T00:29:36;16.73;;;3.47;;
61393;SDS011;48555;50.952;-0.120;2024-01-25T00:32:02;16.83;;;3.20;;
61393;SDS011;48555;50.952;-0.120;2024-01-25T00:34:27;24.00;;;4.15;;
61393;SDS011;48555;50.952;-0.120;2024-01-25T00:36:53;12.55;;;2.92;;
61393;SDS011;48555;50.952;-0.120;2024-01-25T00:39:19;10.93;;;3.05;;
61393;SDS011;48555;50.952;-0.120;2024-01-25T00:41:45;14.05;;;3.65;;
61393;SDS011;48555;50.952;-0.120;2024-01-25T00:44:15;17.05;;;3.38;;
61393;SDS011;48555;50.952;-0.120;2024-01-25T00:46:41;13.93;;;3.03;;
61393;SDS011;48555;50.952;-0.120;2024-01-25T00:49:06;13.77;;;3.60;;
61393;SDS011;48555;50.952;-0.120;2024-01-25T00:51:32;14.52;;;4.00;;
61393;SDS011;48555;50.952;-0.120;2024-01-25T00:53:58;14.77;;;3.50;;
61393;SDS011;48555;50.952;-0.120;2024-01-25T00:56:24;14.25;;;3.78;;
61393;SDS011;48555;50.952;-0.120;2024-01-25T00:58:49;12.93;;;2.90;;
61393;SDS011;48555;50.952;-0.120;2024-01-25T01:01:15;10.70;;;3.05;;
61393;SDS011;48555;50.952;-0.120;2024-01-25T01:03:41;14.40;;;3.40;;
61393;SDS011;48555;50.952;-0.120;2024-01-25T01:06:07;14.35;;;3.22;;
61393;SDS011;48555;50.952;-0.120;2024-01-25T01:08:33;11.80;;;3.08;;
61393;SDS011;48555;50.952;-0.120;2024-01-25T01:10:58;16.85;;;3.70;;
61393;SDS011;48555;50.952;-0.120;2024-01-25T01:13:24;15.30;;;3.83;;
61393;SDS011;48555;50.952;-0.120;2024-01-25T01:15:49;13.25;;;3.65;;
61393;SDS011;48555;50.952;-0.120;2024-01-25T01:18:14;15.55;;;3.70;;
61393;SDS011;48555;50.952;-0.120;2024-01-25T01:20:40;14.23;;;3.67;;
61393;SDS011;48555;50.952;-0.120;2024-01-25T01:23:05;13.48;;;4.03;;
61393;SDS011;48555;50.952;-0.120;2024-01-25T01:25:30;15.68;;;3.35;;
61393;SDS011;48555;50.952;-0.120;2024-01-25T01:27:56;11.18;;;3.53;;
61393;SDS011;48555;50.952;-0.120;2024-01-25T01:30:21;14.88;;;3.38;;
61393;SDS011;48555;50.952;-0.120;2024-01-25T01:32:47;14.27;;;3.13;;
61393;SDS011;48555;50.952;-0.120;2024-01-25T01:35:12;15.38;;;3.40;;
61393;SDS011;48555;50.952;-0.120;2024-01-25T01:37:37;15.80;;;3.40;;
61393;SDS011;48555;50.952;-0.120;2024-01-25T01:40:03;10.35;;;3.15;;
61393;SDS011;48555;50.952;-0.120;2024-01-25T01:42:28;11.80;;;3.08;;
61393;SDS011;48555;50.952;-0.120;2024-01-25T01:44:56;11.18;;;3.00;;
61393;SDS011;48555;50.952;-0.120;2024-01-25T01:47:21;13.80;;;3.53;;
61393;SDS011;48555;50.952;-0.120;2024-01-25T01:49:47;12.80;;;3.50;;
61393;SDS011;48555;50.952;-0.120;2024-01-25T01:52:13;12.68;;;3.15;;
61393;SDS011;48555;50.952;-0.120;2024-01-25T01:54:38;13.00;;;3.13;;
61393;SDS011;48555;50.952;-0.120;2024-01-25T01:57:05;13.77;;;2.95;;
61393;SDS011;48555;50.952;-0.120;2024-01-25T01:59:32;13.93;;;3.33;;
61393;SDS011;48555;50.952;-0.120;2024-01-25T02:01:57;11.63;;;2.88;;
61393;SDS011;48555;50.952;-0.120;2024-01-25T02:04:22;14.25;;;3.92;;
61393;SDS011;48555;50.952;-0.120;2024-01-25T02:06:48;11.10;;;3.20;;
61393;SDS011;48555;50.952;-0.120;2024-01-25T02:09:13;10.85;;;3.25;;
61393;SDS011;48555;50.952;-0.120;2024-01-25T02:11:39;12.90;;;3.20;;
61393;SDS011;48555;50.952;-0.120;2024-01-25T02:14:04;9.38;;;2.95;;
61393;SDS011;48555;50.952;-0.120;2024-01-25T02:16:30;13.23;;;3.33;;
61393;SDS011;48555;50.952;-0.120;2024-01-25T02:18:55;14.90;;;3.72;;
61393;SDS011;48555;50.952;-0.120;2024-01-25T02:21:22;10.32;;;3.75;;
61393;SDS011;48555;50.952;-0.120;2024-01-25T02:23:48;15.05;;;3.42;;
61393;SDS011;48555;50.952;-0.120;2024-01-25T02:26:14;11.52;;;3.00;;
61393;SDS011;48555;50.952;-0.120;2024-01-25T02:28:40;15.00;;;3.60;;
61393;SDS011;48555;50.952;-0.120;2024-01-25T02:31:05;17.02;;;3.83;;
61393;SDS011;48555;50.952;-0.120;2024-01-25T02:33:30;14.77;;;3.50;;
61393;SDS011;48555;50.952;-0.120;2024-01-25T02:35:56;14.57;;;2.95;;
61393;SDS011;48555;50.952;-0.120;2024-01-25T02:38:21;12.15;;;3.20;;
61393;SDS011;48555;50.952;-0.120;2024-01-25T02:40:47;10.90;;;2.83;;
61393;SDS011;48555;50.952;-0.120;2024-01-25T02:43:12;10.98;;;2.45;;
61393;SDS011;48555;50.952;-0.120;2024-01-25T02:45:37;13.27;;;3.10;;
61393;SDS011;48555;50.952;-0.120;2024-01-25T02:48:03;13.23;;;2.90;;
61393;SDS011;48555;50.952;-0.120;2024-01-25T02:50:29;13.95;;;2.97;;
61393;SDS011;48555;50.952;-0.120;2024-01-25T02:52:54;12.73;;;3.13;;
61393;SDS011;48555;50.952;-0.120;2024-01-25T02:55:20;10.10;;;2.58;;
61393;SDS011;48555;50.952;-0.120;2024-01-25T02:57:45;19.45;;;3.42;;
61393;SDS011;48555;50.952;-0.120;2024-01-25T03:00:11;14.13;;;3.20;;
61393;SDS011;48555;50.952;-0.120;2024-01-25T03:02:37;14.27;;;2.85;;
61393;SDS011;48555;50.952;-0.120;2024-01-25T03:05:02;11.80;;;3.05;;
61393;SDS011;48555;50.952;-0.120;2024-01-25T03:07:28;15.18;;;2.95;;
61393;SDS011;48555;50.952;-0.120;2024-01-25T03:09:53;14.52;;;3.33;;
61393;SDS011;48555;50.952;-0.120;2024-01-25T03:12:19;16.05;;;3.38;;
61393;SDS011;48555;50.952;-0.120;2024-01-25T03:14:44;10.00;;;3.67;;
61393;SDS011;48555;50.952;-0.120;2024-01-25T03:17:10;11.70;;;3.13;;
61393;SDS011;48555;50.952;-0.120;2024-01-25T03:19:37;13.35;;;2.95;;
61393;SDS011;48555;50.952;-0.120;2024-01-25T03:22:02;14.55;;;2.70;;
61393;SDS011;48555;50.952;-0.120;2024-01-25T03:24:28;14.20;;;3.67;;
61393;SDS011;48555;50.952;-0.120;2024-01-25T03:26:53;10.27;;;3.28;;
61393;SDS011;48555;50.952;-0.120;2024-01-25T03:29:19;9.35;;;3.10;;
61393;SDS011;48555;50.952;-0.120;2024-01-25T03:31:44;14.15;;;3.55;;
61393;SDS011;48555;50.952;-0.120;2024-01-25T03:34:09;16.05;;;3.33;;
61393;SDS011;48555;50.952;-0.120;2024-01-25T03:36:35;12.95;;;3.20;;
61393;SDS011;48555;50.952;-0.120;2024-01-25T03:39:01;14.88;;;3.42;;
61393;SDS011;48555;50.952;-0.120;2024-01-25T03:41:26;16.02;;;3.58;;
61393;SDS011;48555;50.952;-0.120;2024-01-25T03:43:54;14.30;;;3.40;;
61393;SDS011;48555;50.952;-0.120;2024-01-25T03:46:19;14.40;;;3.90;;
61393;SDS011;48555;50.952;-0.120;2024-01-25T03:48:45;17.02;;;4.43;;
61393;SDS011;48555;50.952;-0.120;2024-01-25T03:51:10;13.00;;;3.53;;
61393;SDS011;48555;50.952;-0.120;2024-01-25T03:53:35;19.02;;;3.97;;
61393;SDS011;48555;50.952;-0.120;2024-01-25T03:56:01;17.00;;;3.30;;
61393;SDS011;48555;50.952;-0.120;2024-01-25T03:58:26;13.07;;;3.30;;
61393;SDS011;48555;50.952;-0.120;2024-01-25T04:00:51;15.52;;;3.95;;
61393;SDS011;48555;50.952;-0.120;2024-01-25T04:03:17;18.08;;;4.20;;
61393;SDS011;48555;50.952;-0.120;2024-01-25T04:05:42;18.17;;;3.45;;
61393;SDS011;48555;50.952;-0.120;2024-01-25T04:08:08;11.00;;;3.38;;
61393;SDS011;48555;50.952;-0.120;2024-01-25T04:10:33;16.48;;;4.07;;
61393;SDS011;48555;50.952;-0.120;2024-01-25T04:12:59;14.15;;;3.92;;
61393;SDS011;48555;50.952;-0.120;2024-01-25T04:15:29;13.18;;;4.18;;
61393;SDS011;48555;50.952;-0.120;2024-01-25T04:17:55;14.27;;;3.65;;
61393;SDS011;48555;50.952;-0.120;2024-01-25T04:20:21;16.40;;;3.80;;
61393;SDS011;48555;50.952;-0.120;2024-01-25T04:22:46;10.52;;;3.30;;
61393;SDS011;48555;50.952;-0.120;2024-01-25T04:25:12;15.38;;;3.60;;
61393;SDS011;48555;50.952;-0.120;2024-01-25T04:27:37;12.98;;;3.10;;
61393;SDS011;48555;50.952;-0.120;2024-01-25T04:30:03;16.85;;;4.13;;
61393;SDS011;48555;50.952;-0.120;2024-01-25T04:32:29;17.00;;;4.78;;
61393;SDS011;48555;50.952;-0.120;2024-01-25T04:34:55;14.02;;;3.90;;
61393;SDS011;48555;50.952;-0.120;2024-01-25T04:37:20;15.27;;;4.07;;
61393;SDS011;48555;50.952;-0.120;2024-01-25T04:39:45;12.75;;;3.33;;
61393;SDS011;48555;50.952;-0.120;2024-01-25T04:42:11;12.45;;;3.35;;
61393;SDS011;48555;50.952;-0.120;2024-01-25T04:44:36;13.60;;;3.95;;
61393;SDS011;48555;50.952;-0.120;2024-01-25T04:47:01;12.55;;;3.70;;
61393;SDS011;48555;50.952;-0.120;2024-01-25T04:49:27;14.55;;;4.38;;
61393;SDS011;48555;50.952;-0.120;2024-01-25T04:51:52;13.20;;;3.80;;
61393;SDS011;48555;50.952;-0.120;2024-01-25T04:54:17;19.05;;;4.22;;
61393;SDS011;48555;50.952;-0.120;2024-01-25T04:56:43;12.40;;;3.70;;
61393;SDS011;48555;50.952;-0.120;2024-01-25T04:59:09;12.85;;;3.92;;
61393;SDS011;48555;50.952;-0.120;2024-01-25T05:01:34;14.32;;;3.55;;
61393;SDS011;48555;50.952;-0.120;2024-01-25T05:04:00;12.80;;;4.10;;
61393;SDS011;48555;50.952;-0.120;2024-01-25T05:06:25;12.25;;;3.50;;
61393;SDS011;48555;50.952;-0.120;2024-01-25T05:08:51;16.02;;;3.80;;
61393;SDS011;48555;50.952;-0.120;2024-01-25T05:11:16;13.55;;;4.28;;
61393;SDS011;48555;50.952;-0.120;2024-01-25T05:13:41;12.45;;;3.30;;
61393;SDS011;48555;50.952;-0.120;2024-01-25T05:16:07;12.40;;;3.22;;
61393;SDS011;48555;50.952;-0.120;2024-01-25T05:18:32;16.73;;;4.03;;
61393;SDS011;48555;50.952;-0.120;2024-01-25T05:20:57;9.77;;;3.25;;
61393;SDS011;48555;50.952;-0.120;2024-01-25T05:23:23;10.02;;;3.60;;
61393;SDS011;48555;50.952;-0.120;2024-01-25T05:25:49;12.50;;;3.50;;
61393;SDS011;48555;50.952;-0.120;2024-01-25T05:28:14;8.82;;;2.70;;
61393;SDS011;48555;50.952;-0.120;2024-01-25T05:30:40;10.30;;;3.20;;
61393;SDS011;48555;50.952;-0.120;2024-01-25T05:33:05;18.67;;;3.90;;
61393;SDS011;48555;50.952;-0.120;2024-01-25T05:35:30;15.52;;;4.00;;
61393;SDS011;48555;50.952;-0.120;2024-01-25T05:37:56;15.27;;;4.03;;
61393;SDS011;48555;50.952;-0.120;2024-01-25T05:40:22;16.40;;;3.53;;
61393;SDS011;48555;50.952;-0.120;2024-01-25T05:42:47;17.20;;;3.90;;
61393;SDS011;48555;50.952;-0.120;2024-01-25T05:45:12;18.00;;;3.80;;
61393;SDS011;48555;50.952;-0.120;2024-01-25T05:47:38;18.10;;;3.80;;
61393;SDS011;48555;50.952;-0.120;2024-01-25T05:50:04;12.52;;;3.03;;
61393;SDS011;48555;50.952;-0.120;2024-01-25T05:52:30;21.20;;;3.72;;
61393;SDS011;48555;50.952;-0.120;2024-01-25T05:54:55;21.10;;;3.28;;
61393;SDS011;48555;50.952;-0.120;2024-01-25T05:57:20;21.17;;;3.75;;
61393;SDS011;48555;50.952;-0.120;2024-01-25T05:59:46;15.57;;;3.38;;
61393;SDS011;48555;50.952;-0.120;2024-01-25T06:02:11;15.40;;;3.53;;
61393;SDS011;48555;50.952;-0.120;2024-01-25T06:04:37;14.80;;;3.08;;
61393;SDS011;48555;50.952;-0.120;2024-01-25T06:07:02;16.45;;;3.15;;
61393;SDS011;48555;50.952;-0.120;2024-01-25T06:09:28;13.80;;;3.28;;
61393;SDS011;48555;50.952;-0.120;2024-01-25T06:11:53;12.05;;;2.40;;
61393;SDS011;48555;50.952;-0.120;2024-01-25T06:14:19;12.10;;;2.17;;
61393;SDS011;48555;50.952;-0.120;2024-01-25T06:16:44;10.80;;;2.58;;
61393;SDS011;48555;50.952;-0.120;2024-01-25T06:19:10;9.07;;;2.47;;
61393;SDS011;48555;50.952;-0.120;2024-01-25T06:21:35;8.68;;;1.73;;
61393;SDS011;48555;50.952;-0.120;2024-01-25T06:24:02;7.95;;;1.30;;
61393;SDS011;48555;50.952;-0.120;2024-01-25T06:26:30;5.35;;;1.33;;
61393;SDS011;48555;50.952;-0.120;2024-01-25T06:28:56;4.68;;;1.42;;
61393;SDS011;48555;50.952;-0.120;2024-01-25T06:31:22;6.38;;;1.33;;
61393;SDS011;48555;50.952;-0.120;2024-01-25T06:33:49;5.57;;;1.10;;
61393;SDS011;48555;50.952;-0.120;2024-01-25T06:36:16;4.28;;;1.13;;
61393;SDS011;48555;50.952;-0.120;2024-01-25T06:38:41;3.60;;;0.93;;
61393;SDS011;48555;50.952;-0.120;2024-01-25T06:41:07;5.13;;;1.00;;
61393;SDS011;48555;50.952;-0.120;2024-01-25T06:43:33;3.85;;;1.10;;
61393;SDS011;48555;50.952;-0.120;2024-01-25T06:45:58;4.95;;;1.20;;
61393;SDS011;48555;50.952;-0.120;2024-01-25T06:48:24;6.20;;;1.25;;
61393;SDS011;48555;50.952;-0.120;2024-01-25T06:50:49;9.38;;;1.90;;
61393;SDS011;48555;50.952;-0.120;2024-01-25T06:53:15;6.50;;;1.60;;
61393;SDS011;48555;50.952;-0.120;2024-01-25T06:55:41;10.02;;;2.13;;
61393;SDS011;48555;50.952;-0.120;2024-01-25T06:58:06;9.10;;;1.80;;
61393;SDS011;48555;50.952;-0.120;2024-01-25T07:00:32;4.63;;;1.30;;
61393;SDS011;48555;50.952;-0.120;2024-01-25T07:02:57;6.40;;;1.83;;
61393;SDS011;48555;50.952;-0.120;2024-01-25T07:05:22;8.48;;;1.60;;
61393;SDS011;48555;50.952;-0.120;2024-01-25T07:07:49;7.47;;;2.15;;
61393;SDS011;48555;50.952;-0.120;2024-01-25T07:10:14;7.57;;;2.47;;
61393;SDS011;48555;50.952;-0.120;2024-01-25T07:12:40;10.63;;;3.38;;
61393;SDS011;48555;50.952;-0.120;2024-01-25T07:15:05;9.30;;;3.38;;
61393;SDS011;48555;50.952;-0.120;2024-01-25T07:17:31;6.72;;;2.40;;
61393;SDS011;48555;50.952;-0.120;2024-01-25T07:19:56;5.43;;;1.70;;
61393;SDS011;48555;50.952;-0.120;2024-01-25T07:22:21;6.22;;;1.75;;
61393;SDS011;48555;50.952;-0.120;2024-01-25T07:24:47;4.18;;;1.30;;
61393;SDS011;48555;50.952;-0.120;2024-01-25T07:27:12;3.38;;;1.13;;
61393;SDS011;48555;50.952;-0.120;2024-01-25T07:29:38;2.85;;;0.93;;
61393;SDS011;48555;50.952;-0.120;2024-01-25T07:32:03;3.63;;;1.35;;
61393;SDS011;48555;50.952;-0.120;2024-01-25T07:34:29;2.92;;;1.10;;
61393;SDS011;48555;50.952;-0.120;2024-01-25T07:36:54;4.22;;;1.58;;
61393;SDS011;48555;50.952;-0.120;2024-01-25T07:39:20;3.33;;;1.38;;
61393;SDS011;48555;50.952;-0.120;2024-01-25T07:41:45;2.85;;;1.23;;
61393;SDS011;48555;50.952;-0.120;2024-01-25T07:44:11;2.53;;;1.17;;
61393;SDS011;48555;50.952;-0.120;2024-01-25T07:46:37;3.53;;;1.27;;
61393;SDS011;48555;50.952;-0.120;2024-01-25T07:49:02;3.60;;;1.52;;
61393;SDS011;48555;50.952;-0.120;2024-01-25T07:51:27;2.72;;;1.30;;
61393;SDS011;48555;50.952;-0.120;2024-01-25T07:53:54;2.83;;;1.23;;
61393;SDS011;48555;50.952;-0.120;2024-01-25T07:56:19;3.20;;;1.60;;
61393;SDS011;48555;50.952;-0.120;2024-01-25T07:58:47;4.18;;;1.80;;
61393;SDS011;48555;50.952;-0.120;2024-01-25T08:01:18;3.80;;;1.90;;
61393;SDS011;48555;50.952;-0.120;2024-01-25T08:03:44;5.07;;;2.00;;
61393;SDS011;48555;50.952;-0.120;2024-01-25T08:06:09;7.70;;;2.83;;
61393;SDS011;48555;50.952;-0.120;2024-01-25T08:08:34;8.70;;;3.15;;
61393;SDS011;48555;50.952;-0.120;2024-01-25T08:11:00;8.98;;;3.15;;
61393;SDS011;48555;50.952;-0.120;2024-01-25T08:13:25;9.05;;;3.47;;
61393;SDS011;48555;50.952;-0.120;2024-01-25T08:15:53;10.32;;;3.63;;
61393;SDS011;48555;50.952;-0.120;2024-01-25T08:18:18;8.25;;;3.40;;
61393;SDS011;48555;50.952;-0.120;2024-01-25T08:20:44;11.52;;;3.88;;
61393;SDS011;48555;50.952;-0.120;2024-01-25T08:23:09;11.05;;;3.63;;
61393;SDS011;48555;50.952;-0.120;2024-01-25T08:25:35;10.77;;;4.22;;
61393;SDS011;48555;50.952;-0.120;2024-01-25T08:28:00;12.95;;;3.88;;
61393;SDS011;48555;50.952;-0.120;2024-01-25T08:30:25;10.82;;;4.40;;
61393;SDS011;48555;50.952;-0.120;2024-01-25T08:32:51;14.57;;;4.80;;
61393;SDS011;48555;50.952;-0.120;2024-01-25T08:35:16;10.90;;;4.30;;
61393;SDS011;48555;50.952;-0.120;2024-01-25T08:37:42;15.40;;;3.95;;
61393;SDS011;48555;50.952;-0.120;2024-01-25T08:40:08;12.60;;;4.13;;
61393;SDS011;48555;50.952;-0.120;2024-01-25T08:42:34;11.45;;;4.18;;
61393;SDS011;48555;50.952;-0.120;2024-01-25T08:45:00;11.43;;;3.90;;
61393;SDS011;48555;50.952;-0.120;2024-01-25T08:47:25;21.50;;;4.78;;
61393;SDS011;48555;50.952;-0.120;2024-01-25T08:49:51;15.73;;;4.68;;
61393;SDS011;48555;50.952;-0.120;2024-01-25T08:52:16;12.23;;;3.83;;
61393;SDS011;48555;50.952;-0.120;2024-01-25T08:54:42;17.00;;;3.88;;
61393;SDS011;48555;50.952;-0.120;2024-01-25T08:57:07;18.00;;;3.38;;
61393;SDS011;48555;50.952;-0.120;2024-01-25T08:59:33;18.45;;;4.18;;
61393;SDS011;48555;50.952;-0.120;2024-01-25T09:02:01;19.25;;;3.95;;
61393;SDS011;48555;50.952;-0.120;2024-01-25T09:04:27;12.07;;;3.75;;
61393;SDS011;48555;50.952;-0.120;2024-01-25T09:06:52;14.27;;;2.92;;
61393;SDS011;48555;50.952;-0.120;2024-01-25T09:09:17;14.25;;;3.25;;
61393;SDS011;48555;50.952;-0.120;2024-01-25T09:11:43;13.85;;;3.45;;
61393;SDS011;48555;50.952;-0.120;2024-01-25T09:14:08;16.15;;;3.30;;
61393;SDS011;48555;50.952;-0.120;2024-01-25T09:16:34;16.90;;;3.47;;
61393;SDS011;48555;50.952;-0.120;2024-01-25T09:19:02;16.40;;;3.95;;
61393;SDS011;48555;50.952;-0.120;2024-01-25T09:21:27;13.10;;;3.30;;
61393;SDS011;48555;50.952;-0.120;2024-01-25T09:23:53;14.52;;;3.40;;
61393;SDS011;48555;50.952;-0.120;2024-01-25T09:26:18;15.88;;;3.40;;
61393;SDS011;48555;50.952;-0.120;2024-01-25T09:28:43;10.65;;;2.85;;
61393;SDS011;48555;50.952;-0.120;2024-01-25T09:31:08;17.02;;;3.55;;
61393;SDS011;48555;50.952;-0.120;2024-01-25T09:33:34;13.50;;;2.70;;
61393;SDS011;48555;50.952;-0.120;2024-01-25T09:36:00;12.60;;;3.17;;
61393;SDS011;48555;50.952;-0.120;2024-01-25T09:38:25;17.48;;;3.13;;
61393;SDS011;48555;50.952;-0.120;2024-01-25T09:40:50;14.52;;;3.28;;
61393;SDS011;48555;50.952;-0.120;2024-01-25T09:43:16;14.52;;;2.80;;
61393;SDS011;48555;50.952;-0.120;2024-01-25T09:45:42;15.63;;;3.25;;
61393;SDS011;48555;50.952;-0.120;2024-01-25T09:48:09;13.50;;;2.90;;
61393;SDS011;48555;50.952;-0.120;2024-01-25T09:50:34;17.73;;;3.70;;
61393;SDS011;48555;50.952;-0.120;2024-01-25T09:52:59;10.02;;;2.70;;
61393;SDS011;48555;50.952;-0.120;2024-01-25T09:55:26;11.43;;;3.38;;
61393;SDS011;48555;50.952;-0.120;2024-01-25T09:57:55;15.18;;;3.13;;
61393;SDS011;48555;50.952;-0.120;2024-01-25T10:00:21;15.02;;;3.08;;
61393;SDS011;48555;50.952;-0.120;2024-01-25T10:02:48;14.77;;;3.65;;
61393;SDS011;48555;50.952;-0.120;2024-01-25T10:05:14;15.73;;;2.92;;
61393;SDS011;48555;50.952;-0.120;2024-01-25T10:07:45;14.40;;;3.35;;
61393;SDS011;48555;50.952;-0.120;2024-01-25T10:10:11;13.80;;;3.55;;
61393;SDS011;48555;50.952;-0.120;2024-01-25T10:12:38;15.10;;;3.65;;
61393;SDS011;48555;50.952;-0.120;2024-01-25T10:15:05;12.45;;;3.22;;
61393;SDS011;48555;50.952;-0.120;2024-01-25T10:17:32;14.00;;;3.08;;
61393;SDS011;48555;50.952;-0.120;2024-01-25T10:19:57;11.18;;;3.20;;
61393;SDS011;48555;50.952;-0.120;2024-01-25T10:22:23;17.40;;;3.60;;
61393;SDS011;48555;50.952;-0.120;2024-01-25T10:24:48;13.90;;;3.00;;
61393;SDS011;48555;50.952;-0.120;2024-01-25T10:27:18;13.23;;;2.70;;
61393;SDS011;48555;50.952;-0.120;2024-01-25T10:29:44;15.85;;;3.80;;
61393;SDS011;48555;50.952;-0.120;2024-01-25T10:32:09;11.60;;;3.22;;
61393;SDS011;48555;50.952;-0.120;2024-01-25T10:34:35;11.73;;;3.17;;
61393;SDS011;48555;50.952;-0.120;2024-01-25T10:37:02;13.63;;;2.65;;
61393;SDS011;48555;50.952;-0.120;2024-01-25T10:39:30;7.57;;;2.85;;
61393;SDS011;48555;50.952;-0.120;2024-01-25T10:41:56;10.50;;;2.42;;
61393;SDS011;48555;50.952;-0.120;2024-01-25T10:44:23;10.55;;;2.90;;
61393;SDS011;48555;50.952;-0.120;2024-01-25T10:46:49;9.35;;;2.22;;
61393;SDS011;48555;50.952;-0.120;2024-01-25T10:49:14;13.27;;;2.65;;
61393;SDS011;48555;50.952;-0.120;2024-01-25T10:51:42;9.40;;;2.58;;
61393;SDS011;48555;50.952;-0.120;2024-01-25T10:54:09;7.72;;;2.22;;
61393;SDS011;48555;50.952;-0.120;2024-01-25T10:56:37;9.50;;;2.67;;
61393;SDS011;48555;50.952;-0.120;2024-01-25T10:59:05;10.38;;;2.83;;
61393;SDS011;48555;50.952;-0.120;2024-01-25T11:01:31;12.13;;;2.58;;
61393;SDS011;48555;50.952;-0.120;2024-01-25T11:03:58;13.65;;;2.75;;
61393;SDS011;48555;50.952;-0.120;2024-01-25T11:06:24;13.32;;;2.58;;
61393;SDS011;48555;50.952;-0.120;2024-01-25T11:08:52;13.80;;;2.55;;
61393;SDS011;48555;50.952;-0.120;2024-01-25T11:11:30;14.68;;;2.78;;
61393;SDS011;48555;50.952;-0.120;2024-01-25T11:13:56;12.27;;;2.80;;
61393;SDS011;48555;50.952;-0.120;2024-01-25T11:16:28;11.75;;;2.95;;
61393;SDS011;48555;50.952;-0.120;2024-01-25T11:18:56;10.82;;;2.72;;
61393;SDS011;48555;50.952;-0.120;2024-01-25T11:21:39;9.98;;;2.50;;
61393;SDS011;48555;50.952;-0.120;2024-01-25T11:24:04;12.13;;;2.58;;
61393;SDS011;48555;50.952;-0.120;2024-01-25T11:26:33;10.90;;;2.38;;
61393;SDS011;48555;50.952;-0.120;2024-01-25T11:28:58;8.48;;;2.55;;
61393;SDS011;48555;50.952;-0.120;2024-01-25T11:31:25;16.05;;;2.55;;
61393;SDS011;48555;50.952;-0.120;2024-01-25T11:33:51;12.30;;;2.53;;
61393;SDS011;48555;50.952;-0.120;2024-01-25T11:36:22;8.68;;;2.40;;
61393;SDS011;48555;50.952;-0.120;2024-01-25T11:38:47;8.70;;;2.22;;
61393;SDS011;48555;50.952;-0.120;2024-01-25T11:41:13;10.90;;;2.45;;
61393;SDS011;48555;50.952;-0.120;2024-01-25T11:43:38;12.23;;;2.40;;
61393;SDS011;48555;50.952;-0.120;2024-01-25T11:46:05;9.40;;;2.20;;
61393;SDS011;48555;50.952;-0.120;2024-01-25T11:48:30;11.20;;;2.42;;
61393;SDS011;48555;50.952;-0.120;2024-01-25T11:50:57;11.25;;;2.33;;
61393;SDS011;48555;50.952;-0.120;2024-01-25T11:53:23;9.48;;;1.90;;
61393;SDS011;48555;50.952;-0.120;2024-01-25T11:55:49;11.05;;;1.98;;
61393;SDS011;48555;50.952;-0.120;2024-01-25T11:58:15;8.48;;;1.83;;
61393;SDS011;48555;50.952;-0.120;2024-01-25T12:00:41;10.52;;;2.13;;
61393;SDS011;48555;50.952;-0.120;2024-01-25T12:03:06;8.98;;;1.98;;
61393;SDS011;48555;50.952;-0.120;2024-01-25T12:05:33;11.38;;;2.35;;
61393;SDS011;48555;50.952;-0.120;2024-01-25T12:07:58;9.30;;;1.80;;
61393;SDS011;48555;50.952;-0.120;2024-01-25T12:10:24;7.43;;;2.28;;
61393;SDS011;48555;50.952;-0.120;2024-01-25T12:12:50;10.65;;;2.45;;
61393;SDS011;48555;50.952;-0.120;2024-01-25T12:15:16;9.75;;;2.33;;
61393;SDS011;48555;50.952;-0.120;2024-01-25T12:17:41;10.65;;;2.10;;
61393;SDS011;48555;50.952;-0.120;2024-01-25T12:20:07;9.02;;;2.45;;
61393;SDS011;48555;50.952;-0.120;2024-01-25T12:22:36;8.90;;;2.10;;
61393;SDS011;48555;50.952;-0.120;2024-01-25T12:25:02;7.78;;;1.95;;
61393;SDS011;48555;50.952;-0.120;2024-01-25T12:27:28;10.40;;;2.53;;
61393;SDS011;48555;50.952;-0.120;2024-01-25T12:29:55;7.00;;;1.90;;
61393;SDS011;48555;50.952;-0.120;2024-01-25T12:32:21;9.32;;;2.03;;
61393;SDS011;48555;50.952;-0.120;2024-01-25T12:34:56;11.05;;;2.42;;
61393;SDS011;48555;50.952;-0.120;2024-01-25T12:37:22;5.80;;;1.63;;
61393;SDS011;48555;50.952;-0.120;2024-01-25T12:39:48;7.47;;;1.95;;
61393;SDS011;48555;50.952;-0.120;2024-01-25T12:42:16;12.68;;;2.88;;
61393;SDS011;48555;50.952;-0.120;2024-01-25T12:44:42;10.02;;;2.05;;
61393;SDS011;48555;50.952;-0.120;2024-01-25T12:47:08;10.73;;;2.25;;
61393;SDS011;48555;50.952;-0.120;2024-01-25T12:49:33;6.32;;;1.98;;
61393;SDS011;48555;50.952;-0.120;2024-01-25T12:51:59;7.40;;;2.30;;
61393;SDS011;48555;50.952;-0.120;2024-01-25T12:54:25;9.98;;;2.22;;
61393;SDS011;48555;50.952;-0.120;2024-01-25T12:56:51;7.28;;;2.08;;
61393;SDS011;48555;50.952;-0.120;2024-01-25T12:59:16;9.38;;;2.20;;
61393;SDS011;48555;50.952;-0.120;2024-01-25T13:01:42;10.32;;;2.70;;
61393;SDS011;48555;50.952;-0.120;2024-01-25T13:04:07;5.38;;;2.10;;
61393;SDS011;48555;50.952;-0.120;2024-01-25T13:06:33;7.57;;;2.25;;
61393;SDS011;48555;50.952;-0.120;2024-01-25T13:08:58;7.97;;;2.10;;
61393;SDS011;48555;50.952;-0.120;2024-01-25T13:11:23;8.02;;;2.05;;
61393;SDS011;48555;50.952;-0.120;2024-01-25T13:13:49;6.15;;;2.20;;
61393;SDS011;48555;50.952;-0.120;2024-01-25T13:16:16;6.22;;;1.90;;
61393;SDS011;48555;50.952;-0.120;2024-01-25T13:18:41;7.20;;;2.42;;
61393;SDS011;48555;50.952;-0.120;2024-01-25T13:21:07;6.03;;;1.90;;
61393;SDS011;48555;50.952;-0.120;2024-01-25T13:23:32;9.73;;;2.13;;
61393;SDS011;48555;50.952;-0.120;2024-01-25T13:25:58;7.53;;;2.20;;
61393;SDS011;48555;50.952;-0.120;2024-01-25T13:28:23;7.25;;;2.47;;
61393;SDS011;48555;50.952;-0.120;2024-01-25T13:30:48;5.13;;;1.85;;
61393;SDS011;48555;50.952;-0.120;2024-01-25T13:33:14;5.43;;;1.75;;
61393;SDS011;48555;50.952;-0.120;2024-01-25T13:35:39;8.52;;;2.10;;
61393;SDS011;48555;50.952;-0.120;2024-01-25T13:38:04;7.65;;;2.20;;
61393;SDS011;48555;50.952;-0.120;2024-01-25T13:40:30;8.02;;;2.13;;
61393;SDS011;48555;50.952;-0.120;2024-01-25T13:42:55;6.53;;;2.17;;
61393;SDS011;48555;50.952;-0.120;2024-01-25T13:45:20;4.57;;;1.63;;
61393;SDS011;48555;50.952;-0.120;2024-01-25T13:47:46;6.32;;;2.05;;
61393;SDS011;48555;50.952;-0.120;2024-01-25T13:50:11;5.72;;;1.40;;
61393;SDS011;48555;50.952;-0.120;2024-01-25T13:52:36;4.00;;;1.45;;
61393;SDS011;48555;50.952;-0.120;2024-01-25T13:55:02;4.47;;;1.60;;
61393;SDS011;48555;50.952;-0.120;2024-01-25T13:57:28;7.18;;;1.95;;
61393;SDS011;48555;50.952;-0.120;2024-01-25T13:59:53;4.35;;;1.60;;
61393;SDS011;48555;50.952;-0.120;2024-01-25T14:02:19;4.88;;;1.40;;
61393;SDS011;48555;50.952;-0.120;2024-01-25T14:04:44;4.72;;;1.40;;
61393;SDS011;48555;50.952;-0.120;2024-01-25T14:07:09;5.68;;;1.60;;
61393;SDS011;48555;50.952;-0.120;2024-01-25T14:09:35;5.00;;;1.55;;
61393;SDS011;48555;50.952;-0.120;2024-01-25T14:12:02;3.65;;;1.25;;
61393;SDS011;48555;50.952;-0.120;2024-01-25T14:14:28;5.80;;;1.70;;
61393;SDS011;48555;50.952;-0.120;2024-01-25T14:16:53;4.05;;;1.30;;